sensor_id;sensor_type;location;lat;lon;timestamp;temperature;humidity
5924;DHT22;2987;50.884;14.818;2022-08-07T00:02:01;11.00;99.90
5924;DHT22;2987;50.884;14.818;2022-08-07T00:04:28;11.00;99.90
5924;DHT22;2987;50.884;14.818;2022-08-07T00:06:54;11.00;99.90
5924;DHT22;2987;50.884;14.818;2022-08-07T00:09:21;10.90;99.90
5924;DHT22;2987;50.884;14.818;2022-08-07T00:11:48;10.90;99.90
5924;DHT22;2987;50.884;14.818;2022-08-07T00:14:15;10.90;99.90
5924;DHT22;2987;50.884;14.818;2022-08-07T00:16:41;10.90;99.90
5924;DHT22;2987;50.884;14.818;2022-08-07T00:19:07;10.80;99.90
5924;DHT22;2987;50.884;14.818;2022-08-07T00:21:33;10.80;99.90
5924;DHT22;2987;50.884;14.818;2022-08-07T00:23:59;10.70;99.90
5924;DHT22;2987;50.884;14.818;2022-08-07T00:26:25;10.70;99.90
5924;DHT22;2987;50.884;14.818;2022-08-07T00:28:51;10.60;99.90
5924;DHT22;2987;50.884;14.818;2022-08-07T00:31:17;10.70;99.90
5924;DHT22;2987;50.884;14.818;2022-08-07T00:33:47;10.60;99.90
5924;DHT22;2987;50.884;14.818;2022-08-07T00:36:16;10.60;99.90
5924;DHT22;2987;50.884;14.818;2022-08-07T00:38:43;10.70;99.90
5924;DHT22;2987;50.884;14.818;2022-08-07T00:41:09;10.50;99.90
5924;DHT22;2987;50.884;14.818;2022-08-07T00:43:36;10.50;99.90
5924;DHT22;2987;50.884;14.818;2022-08-07T00:46:02;10.70;99.90
5924;DHT22;2987;50.884;14.818;2022-08-07T00:48:30;10.60;99.90
5924;DHT22;2987;50.884;14.818;2022-08-07T00:50:56;10.40;99.90
5924;DHT22;2987;50.884;14.818;2022-08-07T00:53:23;10.30;99.90
5924;DHT22;2987;50.884;14.818;2022-08-07T00:56:14;10.30;99.90
5924;DHT22;2987;50.884;14.818;2022-08-07T00:58:41;10.40;99.90
5924;DHT22;2987;50.884;14.818;2022-08-07T01:01:08;10.20;99.90
5924;DHT22;2987;50.884;14.818;2022-08-07T01:03:35;10.20;99.90
5924;DHT22;2987;50.884;14.818;2022-08-07T01:06:01;10.10;99.90
5924;DHT22;2987;50.884;14.818;2022-08-07T01:08:28;10.10;99.90
5924;DHT22;2987;50.884;14.818;2022-08-07T01:10:54;10.20;99.90
5924;DHT22;2987;50.884;14.818;2022-08-07T01:13:21;10.20;99.90
5924;DHT22;2987;50.884;14.818;2022-08-07T01:15:49;10.10;99.90
5924;DHT22;2987;50.884;14.818;2022-08-07T01:18:22;10.10;99.90
5924;DHT22;2987;50.884;14.818;2022-08-07T01:23:36;10.20;99.90
5924;DHT22;2987;50.884;14.818;2022-08-07T01:26:04;10.00;99.90
5924;DHT22;2987;50.884;14.818;2022-08-07T01:28:34;10.00;99.90
5924;DHT22;2987;50.884;14.818;2022-08-07T01:31:01;9.90;99.90
5924;DHT22;2987;50.884;14.818;2022-08-07T01:33:31;9.90;99.90
5924;DHT22;2987;50.884;14.818;2022-08-07T01:36:00;9.90;99.90
5924;DHT22;2987;50.884;14.818;2022-08-07T01:38:29;9.90;99.90
5924;DHT22;2987;50.884;14.818;2022-08-07T01:41:04;9.80;99.90
5924;DHT22;2987;50.884;14.818;2022-08-07T01:43:38;10.00;99.90
5924;DHT22;2987;50.884;14.818;2022-08-07T01:46:05;9.80;99.90
5924;DHT22;2987;50.884;14.818;2022-08-07T01:48:36;9.70;99.90
5924;DHT22;2987;50.884;14.818;2022-08-07T01:51:07;9.80;99.90
5924;DHT22;2987;50.884;14.818;2022-08-07T01:53:35;9.70;99.90
5924;DHT22;2987;50.884;14.818;2022-08-07T01:56:33;9.90;99.90
5924;DHT22;2987;50.884;14.818;2022-08-07T01:59:08;9.70;99.90
5924;DHT22;2987;50.884;14.818;2022-08-07T02:01:43;9.80;99.90
5924;DHT22;2987;50.884;14.818;2022-08-07T02:04:27;9.70;99.90
5924;DHT22;2987;50.884;14.818;2022-08-07T02:07:01;9.50;99.90
5924;DHT22;2987;50.884;14.818;2022-08-07T02:09:28;9.40;99.90
5924;DHT22;2987;50.884;14.818;2022-08-07T02:11:57;9.60;99.90
5924;DHT22;2987;50.884;14.818;2022-08-07T02:14:26;9.50;99.90
5924;DHT22;2987;50.884;14.818;2022-08-07T02:16:55;9.70;99.90
5924;DHT22;2987;50.884;14.818;2022-08-07T02:19:23;9.60;99.90
5924;DHT22;2987;50.884;14.818;2022-08-07T02:21:53;9.40;99.90
5924;DHT22;2987;50.884;14.818;2022-08-07T02:24:21;9.40;99.90
5924;DHT22;2987;50.884;14.818;2022-08-07T02:26:49;9.30;99.90
5924;DHT22;2987;50.884;14.818;2022-08-07T02:29:18;9.20;99.90
5924;DHT22;2987;50.884;14.818;2022-08-07T02:31:47;9.20;99.90
5924;DHT22;2987;50.884;14.818;2022-08-07T02:34:39;9.00;99.90
5924;DHT22;2987;50.884;14.818;2022-08-07T02:37:09;9.00;99.90
5924;DHT22;2987;50.884;14.818;2022-08-07T02:39:40;9.20;99.90
5924;DHT22;2987;50.884;14.818;2022-08-07T02:42:13;9.20;99.90
5924;DHT22;2987;50.884;14.818;2022-08-07T02:44:43;9.10;99.90
5924;DHT22;2987;50.884;14.818;2022-08-07T02:47:11;9.20;99.90
5924;DHT22;2987;50.884;14.818;2022-08-07T02:49:39;9.10;99.90
5924;DHT22;2987;50.884;14.818;2022-08-07T02:52:09;9.00;99.90
5924;DHT22;2987;50.884;14.818;2022-08-07T02:55:06;9.00;99.90
5924;DHT22;2987;50.884;14.818;2022-08-07T02:57:35;9.00;99.90
5924;DHT22;2987;50.884;14.818;2022-08-07T03:00:04;9.00;99.90
5924;DHT22;2987;50.884;14.818;2022-08-07T03:02:34;8.90;99.90
5924;DHT22;2987;50.884;14.818;2022-08-07T03:05:04;9.00;99.90
5924;DHT22;2987;50.884;14.818;2022-08-07T03:07:32;9.30;99.90
5924;DHT22;2987;50.884;14.818;2022-08-07T03:10:00;9.00;99.90
5924;DHT22;2987;50.884;14.818;2022-08-07T03:12:27;9.00;99.90
5924;DHT22;2987;50.884;14.818;2022-08-07T03:14:55;8.90;99.90
5924;DHT22;2987;50.884;14.818;2022-08-07T03:17:23;9.00;99.90
5924;DHT22;2987;50.884;14.818;2022-08-07T03:19:52;8.90;99.90
5924;DHT22;2987;50.884;14.818;2022-08-07T03:22:20;8.90;99.90
5924;DHT22;2987;50.884;14.818;2022-08-07T03:24:49;8.80;99.90
5924;DHT22;2987;50.884;14.818;2022-08-07T03:27:16;8.70;99.90
5924;DHT22;2987;50.884;14.818;2022-08-07T03:29:49;8.60;99.90
5924;DHT22;2987;50.884;14.818;2022-08-07T03:32:24;8.90;99.90
5924;DHT22;2987;50.884;14.818;2022-08-07T03:34:53;8.60;99.90
5924;DHT22;2987;50.884;14.818;2022-08-07T03:37:22;8.60;99.90
5924;DHT22;2987;50.884;14.818;2022-08-07T03:39:49;8.90;99.90
5924;DHT22;2987;50.884;14.818;2022-08-07T03:42:16;8.60;99.90
5924;DHT22;2987;50.884;14.818;2022-08-07T03:44:45;8.60;99.90
5924;DHT22;2987;50.884;14.818;2022-08-07T03:47:13;8.80;99.90
5924;DHT22;2987;50.884;14.818;2022-08-07T03:49:42;8.50;99.90
5924;DHT22;2987;50.884;14.818;2022-08-07T03:52:10;8.70;99.90
5924;DHT22;2987;50.884;14.818;2022-08-07T03:54:38;8.50;99.90
5924;DHT22;2987;50.884;14.818;2022-08-07T03:57:08;8.40;99.90
5924;DHT22;2987;50.884;14.818;2022-08-07T03:59:39;8.50;99.90
5924;DHT22;2987;50.884;14.818;2022-08-07T04:02:06;8.40;99.90
5924;DHT22;2987;50.884;14.818;2022-08-07T04:04:33;8.60;99.90
5924;DHT22;2987;50.884;14.818;2022-08-07T04:07:05;8.70;99.90
5924;DHT22;2987;50.884;14.818;2022-08-07T04:09:35;8.50;99.90
5924;DHT22;2987;50.884;14.818;2022-08-07T04:12:02;8.70;99.90
5924;DHT22;2987;50.884;14.818;2022-08-07T04:14:32;8.50;99.90
5924;DHT22;2987;50.884;14.818;2022-08-07T04:16:59;8.70;99.90
5924;DHT22;2987;50.884;14.818;2022-08-07T04:19:26;8.50;99.90
5924;DHT22;2987;50.884;14.818;2022-08-07T04:21:54;8.70;99.90
5924;DHT22;2987;50.884;14.818;2022-08-07T04:24:23;8.70;99.90
5924;DHT22;2987;50.884;14.818;2022-08-07T04:26:50;8.80;99.90
5924;DHT22;2987;50.884;14.818;2022-08-07T04:29:17;8.70;99.90
5924;DHT22;2987;50.884;14.818;2022-08-07T04:31:44;8.80;99.90
5924;DHT22;2987;50.884;14.818;2022-08-07T04:34:12;8.70;99.90
5924;DHT22;2987;50.884;14.818;2022-08-07T04:36:39;8.90;99.90
5924;DHT22;2987;50.884;14.818;2022-08-07T04:39:05;8.70;99.90
5924;DHT22;2987;50.884;14.818;2022-08-07T04:41:32;8.70;99.90
5924;DHT22;2987;50.884;14.818;2022-08-07T04:44:01;8.70;99.90
5924;DHT22;2987;50.884;14.818;2022-08-07T04:46:59;8.80;99.90
5924;DHT22;2987;50.884;14.818;2022-08-07T04:52:27;9.10;99.90
5924;DHT22;2987;50.884;14.818;2022-08-07T04:55:03;9.00;99.90
5924;DHT22;2987;50.884;14.818;2022-08-07T04:57:42;9.10;99.90
5924;DHT22;2987;50.884;14.818;2022-08-07T05:00:13;9.00;99.90
5924;DHT22;2987;50.884;14.818;2022-08-07T05:02:53;9.50;99.90
5924;DHT22;2987;50.884;14.818;2022-08-07T05:05:25;9.30;99.90
5924;DHT22;2987;50.884;14.818;2022-08-07T05:08:03;9.50;99.90
5924;DHT22;2987;50.884;14.818;2022-08-07T05:10:40;9.60;99.90
5924;DHT22;2987;50.884;14.818;2022-08-07T05:13:17;9.80;99.90
5924;DHT22;2987;50.884;14.818;2022-08-07T05:15:49;9.90;99.90
5924;DHT22;2987;50.884;14.818;2022-08-07T05:18:35;10.10;99.90
5924;DHT22;2987;50.884;14.818;2022-08-07T05:21:08;10.30;99.90
5924;DHT22;2987;50.884;14.818;2022-08-07T05:23:46;10.40;99.90
5924;DHT22;2987;50.884;14.818;2022-08-07T05:26:18;10.40;99.90
5924;DHT22;2987;50.884;14.818;2022-08-07T05:28:52;10.50;99.90
5924;DHT22;2987;50.884;14.818;2022-08-07T05:31:26;10.70;99.90
5924;DHT22;2987;50.884;14.818;2022-08-07T05:33:55;10.60;99.90
5924;DHT22;2987;50.884;14.818;2022-08-07T05:36:23;10.60;99.90
5924;DHT22;2987;50.884;14.818;2022-08-07T05:38:52;10.70;99.90
5924;DHT22;2987;50.884;14.818;2022-08-07T05:41:20;10.90;99.90
5924;DHT22;2987;50.884;14.818;2022-08-07T05:43:53;10.90;99.90
5924;DHT22;2987;50.884;14.818;2022-08-07T05:46:20;10.90;99.90
5924;DHT22;2987;50.884;14.818;2022-08-07T05:48:51;11.00;99.90
5924;DHT22;2987;50.884;14.818;2022-08-07T05:51:19;11.20;99.90
5924;DHT22;2987;50.884;14.818;2022-08-07T05:53:46;11.30;99.90
5924;DHT22;2987;50.884;14.818;2022-08-07T05:56:15;11.40;99.90
5924;DHT22;2987;50.884;14.818;2022-08-07T05:58:46;11.50;99.90
5924;DHT22;2987;50.884;14.818;2022-08-07T06:01:15;11.60;99.90
5924;DHT22;2987;50.884;14.818;2022-08-07T06:03:52;11.60;99.90
5924;DHT22;2987;50.884;14.818;2022-08-07T06:06:20;11.50;99.90
5924;DHT22;2987;50.884;14.818;2022-08-07T06:08:49;11.70;99.90
5924;DHT22;2987;50.884;14.818;2022-08-07T06:11:17;11.80;99.90
5924;DHT22;2987;50.884;14.818;2022-08-07T06:13:44;11.80;99.90
5924;DHT22;2987;50.884;14.818;2022-08-07T06:16:12;12.00;99.90
5924;DHT22;2987;50.884;14.818;2022-08-07T06:18:42;12.10;99.90
5924;DHT22;2987;50.884;14.818;2022-08-07T06:21:10;12.20;99.90
5924;DHT22;2987;50.884;14.818;2022-08-07T06:23:38;12.40;99.90
5924;DHT22;2987;50.884;14.818;2022-08-07T06:26:05;12.50;99.90
5924;DHT22;2987;50.884;14.818;2022-08-07T06:28:32;12.70;99.90
5924;DHT22;2987;50.884;14.818;2022-08-07T06:30:58;12.90;99.90
5924;DHT22;2987;50.884;14.818;2022-08-07T06:33:26;13.40;99.90
5924;DHT22;2987;50.884;14.818;2022-08-07T06:35:53;14.20;99.90
5924;DHT22;2987;50.884;14.818;2022-08-07T06:38:23;15.20;99.90
5924;DHT22;2987;50.884;14.818;2022-08-07T06:40:53;16.30;99.90
5924;DHT22;2987;50.884;14.818;2022-08-07T06:43:23;17.20;99.90
5924;DHT22;2987;50.884;14.818;2022-08-07T06:46:10;18.00;99.90
5924;DHT22;2987;50.884;14.818;2022-08-07T06:48:38;18.80;99.90
5924;DHT22;2987;50.884;14.818;2022-08-07T06:51:07;19.50;99.90
5924;DHT22;2987;50.884;14.818;2022-08-07T06:53:36;20.00;99.90
5924;DHT22;2987;50.884;14.818;2022-08-07T06:56:05;20.20;99.90
5924;DHT22;2987;50.884;14.818;2022-08-07T06:58:35;20.70;99.90
5924;DHT22;2987;50.884;14.818;2022-08-07T07:01:09;21.00;99.90
5924;DHT22;2987;50.884;14.818;2022-08-07T07:03:38;21.30;99.90
5924;DHT22;2987;50.884;14.818;2022-08-07T07:06:07;21.80;99.90
5924;DHT22;2987;50.884;14.818;2022-08-07T07:08:34;22.10;99.90
5924;DHT22;2987;50.884;14.818;2022-08-07T07:11:04;22.10;99.90
5924;DHT22;2987;50.884;14.818;2022-08-07T07:13:40;22.40;99.90
5924;DHT22;2987;50.884;14.818;2022-08-07T07:16:15;22.50;99.90
5924;DHT22;2987;50.884;14.818;2022-08-07T07:18:47;22.50;99.90
5924;DHT22;2987;50.884;14.818;2022-08-07T07:21:19;22.70;99.90
5924;DHT22;2987;50.884;14.818;2022-08-07T07:23:47;22.20;99.90
5924;DHT22;2987;50.884;14.818;2022-08-07T07:26:21;22.40;99.90
5924;DHT22;2987;50.884;14.818;2022-08-07T07:28:54;22.50;99.90
5924;DHT22;2987;50.884;14.818;2022-08-07T07:33:55;22.50;99.90
5924;DHT22;2987;50.884;14.818;2022-08-07T07:36:25;22.70;99.90
5924;DHT22;2987;50.884;14.818;2022-08-07T07:38:52;22.90;99.90
5924;DHT22;2987;50.884;14.818;2022-08-07T07:41:21;22.90;99.90
5924;DHT22;2987;50.884;14.818;2022-08-07T07:43:51;22.80;99.90
5924;DHT22;2987;50.884;14.818;2022-08-07T07:46:19;23.10;99.90
5924;DHT22;2987;50.884;14.818;2022-08-07T07:48:50;22.50;99.80
5924;DHT22;2987;50.884;14.818;2022-08-07T07:51:20;22.30;99.90
5924;DHT22;2987;50.884;14.818;2022-08-07T07:53:53;22.50;99.90
5924;DHT22;2987;50.884;14.818;2022-08-07T07:56:23;22.70;99.90
5924;DHT22;2987;50.884;14.818;2022-08-07T07:58:50;22.80;99.90
5924;DHT22;2987;50.884;14.818;2022-08-07T08:01:19;23.00;99.30
5924;DHT22;2987;50.884;14.818;2022-08-07T08:03:46;23.10;99.80
5924;DHT22;2987;50.884;14.818;2022-08-07T08:06:18;23.30;99.80
5924;DHT22;2987;50.884;14.818;2022-08-07T08:08:45;23.40;99.90
5924;DHT22;2987;50.884;14.818;2022-08-07T08:11:12;23.70;99.90
5924;DHT22;2987;50.884;14.818;2022-08-07T08:13:47;23.90;99.30
5924;DHT22;2987;50.884;14.818;2022-08-07T08:16:17;24.20;98.30
5924;DHT22;2987;50.884;14.818;2022-08-07T08:18:45;24.10;96.60
5924;DHT22;2987;50.884;14.818;2022-08-07T08:21:15;24.40;97.50
5924;DHT22;2987;50.884;14.818;2022-08-07T08:24:03;24.60;94.40
5924;DHT22;2987;50.884;14.818;2022-08-07T08:26:51;24.60;96.40
5924;DHT22;2987;50.884;14.818;2022-08-07T08:29:38;24.90;96.30
5924;DHT22;2987;50.884;14.818;2022-08-07T08:32:06;24.60;91.00
5924;DHT22;2987;50.884;14.818;2022-08-07T08:34:35;24.80;92.30
5924;DHT22;2987;50.884;14.818;2022-08-07T08:37:04;24.90;92.40
5924;DHT22;2987;50.884;14.818;2022-08-07T08:39:32;24.90;93.90
5924;DHT22;2987;50.884;14.818;2022-08-07T08:42:04;25.10;92.20
5924;DHT22;2987;50.884;14.818;2022-08-07T08:44:53;25.40;91.60
5924;DHT22;2987;50.884;14.818;2022-08-07T08:47:43;25.40;91.80
5924;DHT22;2987;50.884;14.818;2022-08-07T08:50:25;25.40;91.40
5924;DHT22;2987;50.884;14.818;2022-08-07T08:58:31;25.80;91.30
5924;DHT22;2987;50.884;14.818;2022-08-07T09:01:10;25.80;89.60
5924;DHT22;2987;50.884;14.818;2022-08-07T09:03:46;25.70;90.60
5924;DHT22;2987;50.884;14.818;2022-08-07T09:06:38;25.60;90.20
5924;DHT22;2987;50.884;14.818;2022-08-07T09:23:54;26.10;86.20
5924;DHT22;2987;50.884;14.818;2022-08-07T09:26:32;26.40;81.90
5924;DHT22;2987;50.884;14.818;2022-08-07T09:29:19;26.50;83.70
5924;DHT22;2987;50.884;14.818;2022-08-07T09:32:07;26.10;83.80
5924;DHT22;2987;50.884;14.818;2022-08-07T09:35:06;26.10;85.30
5924;DHT22;2987;50.884;14.818;2022-08-07T09:37:59;26.20;88.50
5924;DHT22;2987;50.884;14.818;2022-08-07T09:40:39;26.10;86.20
5924;DHT22;2987;50.884;14.818;2022-08-07T09:43:40;26.20;90.30
5924;DHT22;2987;50.884;14.818;2022-08-07T09:52:15;26.70;83.30
5924;DHT22;2987;50.884;14.818;2022-08-07T09:54:44;26.90;81.70
5924;DHT22;2987;50.884;14.818;2022-08-07T10:00:07;26.50;80.50
5924;DHT22;2987;50.884;14.818;2022-08-07T10:02:55;26.60;78.20
5924;DHT22;2987;50.884;14.818;2022-08-07T10:14:05;25.80;78.70
5924;DHT22;2987;50.884;14.818;2022-08-07T10:16:41;25.60;78.40
5924;DHT22;2987;50.884;14.818;2022-08-07T10:19:33;25.50;73.60
5924;DHT22;2987;50.884;14.818;2022-08-07T10:22:43;25.40;82.50
5924;DHT22;2987;50.884;14.818;2022-08-07T10:25:24;25.80;79.80
5924;DHT22;2987;50.884;14.818;2022-08-07T10:36:50;25.80;76.00
5924;DHT22;2987;50.884;14.818;2022-08-07T10:45:29;26.10;80.30
5924;DHT22;2987;50.884;14.818;2022-08-07T10:48:24;26.20;79.40
5924;DHT22;2987;50.884;14.818;2022-08-07T11:05:13;26.80;75.80
5924;DHT22;2987;50.884;14.818;2022-08-07T11:10:50;26.20;78.40
5924;DHT22;2987;50.884;14.818;2022-08-07T11:13:46;26.20;75.40
5924;DHT22;2987;50.884;14.818;2022-08-07T11:16:21;26.00;75.20
5924;DHT22;2987;50.884;14.818;2022-08-07T11:21:33;26.10;77.20
5924;DHT22;2987;50.884;14.818;2022-08-07T11:29:52;26.20;79.40
5924;DHT22;2987;50.884;14.818;2022-08-07T11:33:01;26.30;75.80
5924;DHT22;2987;50.884;14.818;2022-08-07T11:38:32;26.50;74.50
5924;DHT22;2987;50.884;14.818;2022-08-07T11:41:12;26.50;74.50
5924;DHT22;2987;50.884;14.818;2022-08-07T11:44:00;26.50;72.90
5924;DHT22;2987;50.884;14.818;2022-08-07T11:46:47;26.00;73.80
5924;DHT22;2987;50.884;14.818;2022-08-07T11:49:41;25.90;75.40
5924;DHT22;2987;50.884;14.818;2022-08-07T11:55:11;26.20;74.40
5924;DHT22;2987;50.884;14.818;2022-08-07T12:06:20;26.60;76.10
5924;DHT22;2987;50.884;14.818;2022-08-07T12:09:00;26.80;79.40
5924;DHT22;2987;50.884;14.818;2022-08-07T12:11:38;27.00;74.60
5924;DHT22;2987;50.884;14.818;2022-08-07T12:14:17;26.50;72.90
5924;DHT22;2987;50.884;14.818;2022-08-07T12:16:55;26.60;75.70
5924;DHT22;2987;50.884;14.818;2022-08-07T12:19:44;26.60;74.00
5924;DHT22;2987;50.884;14.818;2022-08-07T12:22:22;26.70;72.10
5924;DHT22;2987;50.884;14.818;2022-08-07T12:25:03;26.80;74.10
5924;DHT22;2987;50.884;14.818;2022-08-07T12:28:09;26.80;74.80
5924;DHT22;2987;50.884;14.818;2022-08-07T12:30:38;26.80;75.70
5924;DHT22;2987;50.884;14.818;2022-08-07T12:33:11;26.60;70.80
5924;DHT22;2987;50.884;14.818;2022-08-07T12:35:39;26.80;69.80
5924;DHT22;2987;50.884;14.818;2022-08-07T12:38:07;27.00;69.70
5924;DHT22;2987;50.884;14.818;2022-08-07T12:40:35;27.10;72.70
5924;DHT22;2987;50.884;14.818;2022-08-07T12:43:05;26.90;73.30
5924;DHT22;2987;50.884;14.818;2022-08-07T12:45:41;26.80;75.60
5924;DHT22;2987;50.884;14.818;2022-08-07T12:48:17;26.80;71.90
5924;DHT22;2987;50.884;14.818;2022-08-07T12:51:03;26.50;71.30
5924;DHT22;2987;50.884;14.818;2022-08-07T12:59:04;26.50;76.80
5924;DHT22;2987;50.884;14.818;2022-08-07T13:04:43;26.60;78.30
5924;DHT22;2987;50.884;14.818;2022-08-07T13:07:26;26.90;72.50
5924;DHT22;2987;50.884;14.818;2022-08-07T13:16:01;26.40;73.10
5924;DHT22;2987;50.884;14.818;2022-08-07T13:21:17;26.40;70.90
5924;DHT22;2987;50.884;14.818;2022-08-07T13:24:02;26.30;73.00
5924;DHT22;2987;50.884;14.818;2022-08-07T13:26:48;26.20;72.10
5924;DHT22;2987;50.884;14.818;2022-08-07T13:29:52;26.00;75.00
5924;DHT22;2987;50.884;14.818;2022-08-07T13:32:28;26.20;73.10
5924;DHT22;2987;50.884;14.818;2022-08-07T13:37:56;26.50;71.80
5924;DHT22;2987;50.884;14.818;2022-08-07T13:40:27;26.00;70.90
5924;DHT22;2987;50.884;14.818;2022-08-07T13:45:29;26.10;72.70
5924;DHT22;2987;50.884;14.818;2022-08-07T13:48:02;26.20;70.40
5924;DHT22;2987;50.884;14.818;2022-08-07T13:50:35;26.20;74.10
5924;DHT22;2987;50.884;14.818;2022-08-07T13:53:07;26.10;75.60
5924;DHT22;2987;50.884;14.818;2022-08-07T13:55:41;26.30;71.00
5924;DHT22;2987;50.884;14.818;2022-08-07T13:58:12;26.10;71.30
5924;DHT22;2987;50.884;14.818;2022-08-07T14:01:12;26.20;70.70
5924;DHT22;2987;50.884;14.818;2022-08-07T14:04:07;26.10;71.30
5924;DHT22;2987;50.884;14.818;2022-08-07T14:06:38;26.20;70.10
5924;DHT22;2987;50.884;14.818;2022-08-07T14:09:08;26.20;70.60
5924;DHT22;2987;50.884;14.818;2022-08-07T14:11:43;26.40;71.40
5924;DHT22;2987;50.884;14.818;2022-08-07T14:14:13;26.00;71.00
5924;DHT22;2987;50.884;14.818;2022-08-07T14:16:42;26.00;72.50
5924;DHT22;2987;50.884;14.818;2022-08-07T14:19:22;26.10;70.20
5924;DHT22;2987;50.884;14.818;2022-08-07T14:21:55;26.20;73.30
5924;DHT22;2987;50.884;14.818;2022-08-07T14:24:32;26.10;71.40
5924;DHT22;2987;50.884;14.818;2022-08-07T14:27:08;26.20;70.10
5924;DHT22;2987;50.884;14.818;2022-08-07T14:29:40;26.10;71.50
5924;DHT22;2987;50.884;14.818;2022-08-07T14:32:09;26.10;75.30
5924;DHT22;2987;50.884;14.818;2022-08-07T14:34:40;26.10;72.00
5924;DHT22;2987;50.884;14.818;2022-08-07T14:37:08;25.90;73.40
5924;DHT22;2987;50.884;14.818;2022-08-07T14:39:39;25.80;74.70
5924;DHT22;2987;50.884;14.818;2022-08-07T14:42:09;25.80;72.70
5924;DHT22;2987;50.884;14.818;2022-08-07T14:44:46;25.80;73.80
5924;DHT22;2987;50.884;14.818;2022-08-07T14:47:16;25.60;76.90
5924;DHT22;2987;50.884;14.818;2022-08-07T14:49:44;25.40;72.40
5924;DHT22;2987;50.884;14.818;2022-08-07T14:52:12;25.50;72.70
5924;DHT22;2987;50.884;14.818;2022-08-07T14:54:40;25.70;73.20
5924;DHT22;2987;50.884;14.818;2022-08-07T14:57:11;25.60;74.80
5924;DHT22;2987;50.884;14.818;2022-08-07T14:59:40;25.40;72.90
5924;DHT22;2987;50.884;14.818;2022-08-07T15:02:11;25.10;72.70
5924;DHT22;2987;50.884;14.818;2022-08-07T15:04:41;25.30;75.50
5924;DHT22;2987;50.884;14.818;2022-08-07T15:07:10;25.30;73.90
5924;DHT22;2987;50.884;14.818;2022-08-07T15:09:39;25.30;74.50
5924;DHT22;2987;50.884;14.818;2022-08-07T15:12:14;25.20;74.70
5924;DHT22;2987;50.884;14.818;2022-08-07T15:14:50;25.20;73.90
5924;DHT22;2987;50.884;14.818;2022-08-07T15:17:43;25.30;74.10
5924;DHT22;2987;50.884;14.818;2022-08-07T15:20:14;25.30;71.60
5924;DHT22;2987;50.884;14.818;2022-08-07T15:22:48;25.30;70.00
5924;DHT22;2987;50.884;14.818;2022-08-07T15:25:23;25.10;74.40
5924;DHT22;2987;50.884;14.818;2022-08-07T15:27:56;25.00;73.00
5924;DHT22;2987;50.884;14.818;2022-08-07T15:30:24;24.80;74.10
5924;DHT22;2987;50.884;14.818;2022-08-07T15:32:51;24.80;74.50
5924;DHT22;2987;50.884;14.818;2022-08-07T15:35:20;24.70;73.60
5924;DHT22;2987;50.884;14.818;2022-08-07T15:37:52;24.80;72.50
5924;DHT22;2987;50.884;14.818;2022-08-07T15:40:20;24.80;73.40
5924;DHT22;2987;50.884;14.818;2022-08-07T15:42:52;24.70;75.80
5924;DHT22;2987;50.884;14.818;2022-08-07T15:45:29;24.90;77.40
5924;DHT22;2987;50.884;14.818;2022-08-07T15:47:59;24.90;76.80
5924;DHT22;2987;50.884;14.818;2022-08-07T15:50:30;24.90;74.30
5924;DHT22;2987;50.884;14.818;2022-08-07T15:52:59;24.80;75.00
5924;DHT22;2987;50.884;14.818;2022-08-07T15:55:28;24.80;74.20
5924;DHT22;2987;50.884;14.818;2022-08-07T15:57:58;24.80;74.10
5924;DHT22;2987;50.884;14.818;2022-08-07T16:00:30;24.70;74.80
5924;DHT22;2987;50.884;14.818;2022-08-07T16:03:02;24.70;73.30
5924;DHT22;2987;50.884;14.818;2022-08-07T16:05:30;24.70;75.00
5924;DHT22;2987;50.884;14.818;2022-08-07T16:08:07;24.70;73.50
5924;DHT22;2987;50.884;14.818;2022-08-07T16:10:34;24.70;75.40
5924;DHT22;2987;50.884;14.818;2022-08-07T16:13:28;24.50;73.40
5924;DHT22;2987;50.884;14.818;2022-08-07T16:16:40;24.40;74.30
5924;DHT22;2987;50.884;14.818;2022-08-07T16:19:43;24.10;74.50
5924;DHT22;2987;50.884;14.818;2022-08-07T16:22:35;23.80;76.30
5924;DHT22;2987;50.884;14.818;2022-08-07T16:25:28;23.70;77.80
5924;DHT22;2987;50.884;14.818;2022-08-07T16:30:49;23.30;77.70
5924;DHT22;2987;50.884;14.818;2022-08-07T16:33:25;23.10;79.00
5924;DHT22;2987;50.884;14.818;2022-08-07T16:36:13;23.00;79.10
5924;DHT22;2987;50.884;14.818;2022-08-07T17:04:33;21.90;83.60
5924;DHT22;2987;50.884;14.818;2022-08-07T17:34:15;21.10;85.90
5924;DHT22;2987;50.884;14.818;2022-08-07T17:36:44;21.10;88.80
5924;DHT22;2987;50.884;14.818;2022-08-07T17:39:34;21.00;86.60
5924;DHT22;2987;50.884;14.818;2022-08-07T17:45:09;20.80;87.40
5924;DHT22;2987;50.884;14.818;2022-08-07T17:50:19;20.70;87.70
5924;DHT22;2987;50.884;14.818;2022-08-07T17:53:08;20.60;88.30
5924;DHT22;2987;50.884;14.818;2022-08-07T17:55:46;20.50;89.60
5924;DHT22;2987;50.884;14.818;2022-08-07T18:00:44;20.30;90.50
5924;DHT22;2987;50.884;14.818;2022-08-07T18:03:34;20.30;91.00
5924;DHT22;2987;50.884;14.818;2022-08-07T18:08:47;20.00;91.70
5924;DHT22;2987;50.884;14.818;2022-08-07T18:11:38;19.90;93.60
5924;DHT22;2987;50.884;14.818;2022-08-07T18:16:46;19.60;92.30
5924;DHT22;2987;50.884;14.818;2022-08-07T18:19:21;19.50;92.10
5924;DHT22;2987;50.884;14.818;2022-08-07T18:22:13;19.40;93.20
5924;DHT22;2987;50.884;14.818;2022-08-07T18:25:05;19.30;93.50
5924;DHT22;2987;50.884;14.818;2022-08-07T18:41:50;18.50;97.60
5924;DHT22;2987;50.884;14.818;2022-08-07T18:47:09;18.20;99.90
5924;DHT22;2987;50.884;14.818;2022-08-07T19:01:30;17.50;99.90
5924;DHT22;2987;50.884;14.818;2022-08-07T19:04:03;17.30;99.90
5924;DHT22;2987;50.884;14.818;2022-08-07T19:06:46;17.20;99.90
5924;DHT22;2987;50.884;14.818;2022-08-07T19:09:41;17.10;99.90
5924;DHT22;2987;50.884;14.818;2022-08-07T19:12:15;17.00;99.90
5924;DHT22;2987;50.884;14.818;2022-08-07T19:15:12;16.90;99.90
5924;DHT22;2987;50.884;14.818;2022-08-07T19:20:52;16.80;99.90
5924;DHT22;2987;50.884;14.818;2022-08-07T19:23:30;16.70;99.90
5924;DHT22;2987;50.884;14.818;2022-08-07T19:31:31;16.40;99.90
5924;DHT22;2987;50.884;14.818;2022-08-07T19:33:59;16.30;99.90
5924;DHT22;2987;50.884;14.818;2022-08-07T19:36:29;16.20;99.90
5924;DHT22;2987;50.884;14.818;2022-08-07T19:39:01;16.10;99.90
5924;DHT22;2987;50.884;14.818;2022-08-07T19:41:31;16.10;99.90
5924;DHT22;2987;50.884;14.818;2022-08-07T19:44:01;16.00;99.90
5924;DHT22;2987;50.884;14.818;2022-08-07T19:46:32;16.00;99.90
5924;DHT22;2987;50.884;14.818;2022-08-07T19:49:06;15.90;99.90
5924;DHT22;2987;50.884;14.818;2022-08-07T19:51:35;15.80;99.90
5924;DHT22;2987;50.884;14.818;2022-08-07T19:54:06;15.70;99.90
5924;DHT22;2987;50.884;14.818;2022-08-07T19:56:37;15.60;99.90
5924;DHT22;2987;50.884;14.818;2022-08-07T20:02:01;15.50;99.90
5924;DHT22;2987;50.884;14.818;2022-08-07T20:07:13;15.30;99.90
5924;DHT22;2987;50.884;14.818;2022-08-07T20:09:42;15.30;99.90
5924;DHT22;2987;50.884;14.818;2022-08-07T20:12:09;15.20;99.90
5924;DHT22;2987;50.884;14.818;2022-08-07T20:14:40;15.20;99.90
5924;DHT22;2987;50.884;14.818;2022-08-07T20:17:12;15.10;99.90
5924;DHT22;2987;50.884;14.818;2022-08-07T20:19:42;15.00;99.90
5924;DHT22;2987;50.884;14.818;2022-08-07T20:22:14;14.90;99.90
5924;DHT22;2987;50.884;14.818;2022-08-07T20:24:50;14.90;99.90
5924;DHT22;2987;50.884;14.818;2022-08-07T20:27:23;14.80;99.90